Time;durP1;ratioP1;P1;durP2;ratioP2;P2;SDS_P1;SDS_P2;PMS_P1;PMS_P2;Temp;Humidity;BMP_temperature;BMP_pressure;BME280_temperature;BME280_humidity;BME280_pressure;Samples;Min_cycle;Max_cycle;Signal;HPM_P1;HPM_P2
2020/12/26 00:00:19;;;;;;;;;;;;;;;20.64;40.98;100295.88;5096153;28;756;-47
2020/12/26 00:02:45;;;;;;;;;;;;;;;20.63;40.80;100294.22;5095977;28;791;-50
2020/12/26 00:05:11;;;;;;;;;;;;;;;20.70;40.84;100291.06;5095398;28;1905;-45
2020/12/26 00:07:36;;;;;;;;;;;;;;;20.80;40.59;100302.69;5096074;28;743;-45
2020/12/26 00:10:02;;;;;;;;;;;;;;;20.92;40.50;100296.59;5096072;28;743;-49
2020/12/26 00:12:28;;;;;;;;;;;;;;;20.75;40.60;100296.44;5095927;28;755;-46
2020/12/26 00:14:53;;;;;;;;;;;;;;;20.63;40.99;100297.00;5096474;28;818;-45
2020/12/26 00:17:19;;;;;;;;;;;;;;;20.79;40.70;100298.28;5096430;28;798;-48
2020/12/26 00:19:44;;;;;;;;;;;;;;;20.87;40.35;100301.41;5095755;28;1015;-47
2020/12/26 00:22:10;;;;;;;;;;;;;;;20.73;40.81;100309.78;5097827;28;1080;-44
2020/12/26 00:24:36;;;;;;;;;;;;;;;20.71;40.99;100307.31;5099314;28;767;-44
2020/12/26 00:27:02;;;;;;;;;;;;;;;20.78;40.79;100316.00;5099518;28;1917;-46
2020/12/26 00:29:27;;;;;;;;;;;;;;;20.93;40.37;100313.97;5099595;28;854;-44
2020/12/26 00:31:53;;;;;;;;;;;;;;;20.74;40.61;100306.69;5099146;28;796;-45
2020/12/26 00:34:18;;;;;;;;;;;;;;;20.72;40.82;100303.44;5099408;28;803;-47
2020/12/26 00:36:44;;;;;;;;;;;;;;;20.44;41.25;100306.25;5098814;28;953;-46
2020/12/26 00:39:09;;;;;;;;;;;;;;;20.37;41.57;100303.13;5099212;28;816;-44
2020/12/26 00:41:35;;;;;;;;;;;;;;;20.44;41.72;100308.19;5100118;28;842;-47
2020/12/26 00:44:00;;;;;;;;;;;;;;;20.40;41.36;100298.88;5104426;28;1129;-46
2020/12/26 00:46:25;;;;;;;;;;;;;;;20.60;41.11;100303.16;5119330;28;1917;-47
2020/12/26 00:48:51;;;;;;;;;;;;;;;20.63;41.03;100295.03;5120040;28;709;-44
2020/12/26 00:51:17;;;;;;;;;;;;;;;20.41;41.43;100306.88;5105705;28;1238;-45
2020/12/26 00:53:43;;;;;;;;;;;;;;;20.20;41.88;100309.25;5099289;28;752;-44
2020/12/26 00:56:11;;;;;;;;;;;;;;;20.05;42.16;100313.19;5098049;28;1204;-47
2020/12/26 00:58:37;;;;;;;;;;;;;;;20.16;41.97;100319.28;5097965;28;1292;-46
2020/12/26 01:01:03;;;;;;;;;;;;;;;20.22;41.77;100317.25;5098866;28;842;-46
2020/12/26 01:03:47;;;;;;;;;;;;;;;20.38;41.57;100321.28;5098884;28;613;-45
2020/12/26 01:06:13;;;;;;;;;;;;;;;20.59;41.01;100326.38;5098348;28;1984;-49
2020/12/26 01:08:39;;;;;;;;;;;;;;;20.37;41.57;100330.72;5098618;28;786;-47
2020/12/26 01:11:04;;;;;;;;;;;;;;;20.54;41.17;100323.72;5099289;28;729;-47
2020/12/26 01:13:30;;;;;;;;;;;;;;;20.57;41.19;100323.09;5098725;28;818;-46
2020/12/26 01:15:56;;;;;;;;;;;;;;;20.69;40.88;100320.63;5098540;28;847;-45
2020/12/26 01:18:22;;;;;;;;;;;;;;;20.38;41.22;100326.00;5098503;28;771;-45
2020/12/26 01:20:47;;;;;;;;;;;;;;;20.24;41.67;100320.50;5097867;28;1192;-45
2020/12/26 01:23:12;;;;;;;;;;;;;;;20.27;41.75;100319.88;5098373;28;747;-48
2020/12/26 01:25:38;;;;;;;;;;;;;;;20.26;41.68;100312.72;5098652;28;1918;-48
2020/12/26 01:28:03;;;;;;;;;;;;;;;20.22;41.92;100323.59;5098290;28;795;-45
2020/12/26 01:30:29;;;;;;;;;;;;;;;20.18;41.83;100328.91;5098309;28;806;-53
2020/12/26 01:32:54;;;;;;;;;;;;;;;19.99;42.41;100329.03;5097408;28;739;-49
2020/12/26 01:35:20;;;;;;;;;;;;;;;20.14;42.15;100321.56;5097746;28;965;-46
2020/12/26 01:37:45;;;;;;;;;;;;;;;20.16;41.84;100330.31;5098075;28;823;-48
2020/12/26 01:40:11;;;;;;;;;;;;;;;20.02;42.27;100330.38;5098317;28;860;-46
2020/12/26 01:42:36;;;;;;;;;;;;;;;20.06;42.07;100331.34;5097756;28;834;-47
2020/12/26 01:45:02;;;;;;;;;;;;;;;20.31;41.46;100335.56;5111797;28;1172;-45
2020/12/26 01:47:28;;;;;;;;;;;;;;;20.35;41.45;100336.53;5118060;28;1963;-45
2020/12/26 01:49:53;;;;;;;;;;;;;;;20.50;41.05;100332.63;5117855;28;991;-47
2020/12/26 01:52:19;;;;;;;;;;;;;;;20.41;41.14;100339.19;5097939;28;1095;-45
2020/12/26 01:54:44;;;;;;;;;;;;;;;20.51;41.04;100344.50;5097522;28;744;-45
2020/12/26 01:57:09;;;;;;;;;;;;;;;20.50;41.09;100340.91;5096572;28;743;-48
2020/12/26 01:59:35;;;;;;;;;;;;;;;20.45;41.21;100345.72;5097859;28;736;-46
2020/12/26 02:02:02;;;;;;;;;;;;;;;20.55;41.15;100339.16;5097404;28;783;-48
2020/12/26 02:04:27;;;;;;;;;;;;;;;20.52;41.06;100343.34;5096735;28;1338;-47
2020/12/26 02:06:59;;;;;;;;;;;;;;;20.61;41.07;100348.97;5097386;28;1910;-46
2020/12/26 02:09:24;;;;;;;;;;;;;;;20.48;41.17;100353.38;5097333;28;779;-46
2020/12/26 02:11:50;;;;;;;;;;;;;;;20.63;40.83;100346.72;5097558;28;878;-45
2020/12/26 02:14:15;;;;;;;;;;;;;;;20.57;40.97;100345.19;5097541;28;803;-45
2020/12/26 02:16:43;;;;;;;;;;;;;;;20.65;40.98;100344.44;5095434;28;858;-47
2020/12/26 02:19:10;;;;;;;;;;;;;;;20.46;41.24;100350.94;5097591;28;1177;-46
2020/12/26 02:21:35;;;;;;;;;;;;;;;20.66;40.65;100354.38;5096940;28;954;-45
2020/12/26 02:24:00;;;;;;;;;;;;;;;20.63;40.86;100353.03;5097198;28;728;-46
2020/12/26 02:26:26;;;;;;;;;;;;;;;20.74;40.53;100356.44;5097484;28;1906;-45
2020/12/26 02:28:51;;;;;;;;;;;;;;;20.68;40.76;100352.97;5096164;28;613;-45
2020/12/26 02:31:17;;;;;;;;;;;;;;;20.62;41.04;100356.13;5096894;28;792;-45
2020/12/26 02:33:42;;;;;;;;;;;;;;;20.71;40.89;100362.59;5097201;28;823;-46
2020/12/26 02:36:08;;;;;;;;;;;;;;;20.73;40.45;100371.34;5096881;28;937;-47
2020/12/26 02:38:33;;;;;;;;;;;;;;;20.63;40.93;100369.63;5097226;28;918;-47
2020/12/26 02:40:59;;;;;;;;;;;;;;;20.82;40.64;100369.50;5096984;28;811;-44
2020/12/26 02:43:25;;;;;;;;;;;;;;;20.66;40.60;100368.19;5097024;28;1196;-47
2020/12/26 02:45:50;;;;;;;;;;;;;;;20.66;40.90;100377.31;5116887;28;1967;-49
2020/12/26 02:48:16;;;;;;;;;;;;;;;20.65;40.96;100372.91;5117286;28;894;-45
2020/12/26 02:50:41;;;;;;;;;;;;;;;20.70;41.08;100383.03;5109504;28;988;-47
2020/12/26 02:53:07;;;;;;;;;;;;;;;20.76;40.60;100383.75;5096709;28;743;-45
2020/12/26 02:55:33;;;;;;;;;;;;;;;20.81;40.77;100378.91;5096837;28;878;-45
2020/12/26 02:57:58;;;;;;;;;;;;;;;20.83;40.62;100373.91;5097282;28;797;-46
2020/12/26 03:00:24;;;;;;;;;;;;;;;20.74;40.97;100377.72;5096761;28;789;-45
2020/12/26 03:02:49;;;;;;;;;;;;;;;20.89;40.28;100382.88;5096673;28;858;-45
2020/12/26 03:05:14;;;;;;;;;;;;;;;20.77;40.77;100400.00;5096529;28;1971;-48
2020/12/26 03:07:40;;;;;;;;;;;;;;;20.92;40.56;100403.56;5096207;28;823;-48
2020/12/26 03:10:05;;;;;;;;;;;;;;;20.95;40.50;100400.16;5096627;28;739;-46
2020/12/26 03:12:31;;;;;;;;;;;;;;;21.01;40.09;100399.75;5096776;28;814;-45
2020/12/26 03:14:56;;;;;;;;;;;;;;;20.92;40.45;100390.56;5096282;28;815;-45
2020/12/26 03:17:21;;;;;;;;;;;;;;;20.98;40.21;100394.00;5096631;28;806;-46
2020/12/26 03:19:47;;;;;;;;;;;;;;;21.04;40.32;100403.81;5096342;28;1205;-47
2020/12/26 03:22:12;;;;;;;;;;;;;;;20.97;40.42;100409.78;5096415;28;938;-45
2020/12/26 03:24:38;;;;;;;;;;;;;;;20.96;40.34;100408.16;5096725;28;808;-48
2020/12/26 03:27:03;;;;;;;;;;;;;;;21.06;40.16;100412.63;5096502;28;1913;-45
2020/12/26 03:29:29;;;;;;;;;;;;;;;21.05;40.20;100410.97;5096331;28;752;-46
2020/12/26 03:31:54;;;;;;;;;;;;;;;20.98;40.26;100416.94;5096693;28;811;-46
2020/12/26 03:34:20;;;;;;;;;;;;;;;20.96;40.54;100413.66;5096571;28;746;-46
2020/12/26 03:36:45;;;;;;;;;;;;;;;21.02;40.50;100414.38;5095769;28;925;-48
2020/12/26 03:39:10;;;;;;;;;;;;;;;21.08;40.28;100415.88;5096560;28;859;-47
2020/12/26 03:41:36;;;;;;;;;;;;;;;21.16;39.92;100423.41;5096147;28;827;-45
2020/12/26 03:44:01;;;;;;;;;;;;;;;21.15;40.07;100426.50;5101716;28;1184;-44
2020/12/26 03:46:27;;;;;;;;;;;;;;;20.90;40.78;100422.38;5116597;28;1980;-46
2020/12/26 03:48:52;;;;;;;;;;;;;;;20.78;41.01;100412.69;5116356;28;823;-48
2020/12/26 03:51:17;;;;;;;;;;;;;;;20.82;40.97;100416.47;5103757;28;937;-45
2020/12/26 03:53:43;;;;;;;;;;;;;;;20.57;41.22;100425.31;5096189;28;736;-49
2020/12/26 03:56:08;;;;;;;;;;;;;;;20.42;41.77;100429.22;5096448;28;751;-47
2020/12/26 03:58:34;;;;;;;;;;;;;;;20.35;41.83;100432.38;5098763;28;1348;-46
2020/12/26 04:00:59;;;;;;;;;;;;;;;20.51;41.29;100425.41;5100290;28;755;-45
2020/12/26 04:03:24;;;;;;;;;;;;;;;20.26;41.82;100423.16;5099897;28;535;-45
2020/12/26 04:05:50;;;;;;;;;;;;;;;20.40;41.75;100435.03;5099793;28;1966;-45
2020/12/26 04:08:15;;;;;;;;;;;;;;;20.53;41.31;100441.66;5099869;28;755;-44
2020/12/26 04:10:41;;;;;;;;;;;;;;;20.33;41.84;100440.97;5099653;28;799;-45
2020/12/26 04:13:06;;;;;;;;;;;;;;;19.97;42.34;100441.66;5099824;28;1396;-46
2020/12/26 04:15:31;;;;;;;;;;;;;;;20.17;42.16;100451.50;5099929;28;744;-47
2020/12/26 04:17:57;;;;;;;;;;;;;;;20.52;41.18;100454.66;5097781;28;903;-47
2020/12/26 04:20:22;;;;;;;;;;;;;;;20.51;41.15;100452.22;5099327;28;1047;-46
2020/12/26 04:22:48;;;;;;;;;;;;;;;20.47;41.31;100446.47;5098825;28;901;-48
2020/12/26 04:25:13;;;;;;;;;;;;;;;20.56;41.34;100451.28;5099940;28;848;-48
2020/12/26 04:27:38;;;;;;;;;;;;;;;20.51;41.16;100466.84;5099623;28;1918;-51
2020/12/26 04:30:04;;;;;;;;;;;;;;;20.62;41.10;100464.69;5099407;28;723;-47
2020/12/26 04:32:30;;;;;;;;;;;;;;;20.50;41.37;100467.97;5100128;28;736;-46
2020/12/26 04:34:55;;;;;;;;;;;;;;;20.66;41.09;100459.34;5099210;28;985;-47
2020/12/26 04:37:20;;;;;;;;;;;;;;;20.63;40.97;100454.44;5099087;28;831;-47
2020/12/26 04:39:46;;;;;;;;;;;;;;;20.76;40.71;100453.66;5099409;28;871;-47
2020/12/26 04:42:12;;;;;;;;;;;;;;;20.65;40.93;100457.69;5099688;28;783;-49
2020/12/26 04:44:37;;;;;;;;;;;;;;;20.39;41.46;100463.78;5109225;28;1081;-47
2020/12/26 04:47:04;;;;;;;;;;;;;;;20.25;41.89;100479.53;5118463;28;1982;-49
2020/12/26 04:49:30;;;;;;;;;;;;;;;20.45;41.56;100473.56;5118089;28;910;-46
2020/12/26 04:51:55;;;;;;;;;;;;;;;20.37;41.46;100485.38;5101296;28;952;-46
2020/12/26 04:54:25;;;;;;;;;;;;;;;20.26;41.99;100483.91;5097961;28;819;-45
2020/12/26 04:56:54;;;;;;;;;;;;;;;20.26;41.89;100481.97;5099073;28;871;-47
2020/12/26 04:59:19;;;;;;;;;;;;;;;20.49;41.25;100490.38;5098568;28;795;-46
2020/12/26 05:01:45;;;;;;;;;;;;;;;20.51;41.31;100490.88;5099098;28;803;-47
2020/12/26 05:04:10;;;;;;;;;;;;;;;20.46;41.35;100499.28;5098294;28;831;-47
2020/12/26 05:06:39;;;;;;;;;;;;;;;20.40;41.40;100498.56;5098047;28;1913;-50
2020/12/26 05:09:04;;;;;;;;;;;;;;;20.49;41.18;100502.22;5097513;28;1501;-47
2020/12/26 05:11:29;;;;;;;;;;;;;;;20.71;40.89;100499.91;5098658;28;823;-46
2020/12/26 05:13:55;;;;;;;;;;;;;;;20.65;40.90;100513.78;5097568;28;1114;-45
2020/12/26 05:16:20;;;;;;;;;;;;;;;20.76;40.70;100510.84;5098679;28;839;-44
2020/12/26 05:18:47;;;;;;;;;;;;;;;20.90;40.34;100519.97;5098408;28;1033;-47
2020/12/26 05:21:14;;;;;;;;;;;;;;;20.92;40.40;100517.69;5095683;28;1051;-48
2020/12/26 05:23:39;;;;;;;;;;;;;;;20.94;40.17;100520.94;5096175;28;898;-56
2020/12/26 05:26:05;;;;;;;;;;;;;;;20.74;40.77;100522.22;5098319;28;1905;-47
2020/12/26 05:28:33;;;;;;;;;;;;;;;20.81;40.47;100522.59;5096985;28;1317;-44
2020/12/26 05:30:59;;;;;;;;;;;;;;;20.85;40.36;100515.34;5097140;28;816;-47
2020/12/26 05:33:28;;;;;;;;;;;;;;;20.87;40.46;100517.78;5097039;28;1198;-44
2020/12/26 05:35:54;;;;;;;;;;;;;;;20.90;40.21;100519.13;5097531;28;859;-53
2020/12/26 05:38:20;;;;;;;;;;;;;;;21.01;40.18;100512.25;5096995;28;1357;-44
2020/12/26 05:40:46;;;;;;;;;;;;;;;20.93;40.32;100524.03;5098028;28;767;-47
2020/12/26 05:43:13;;;;;;;;;;;;;;;21.10;40.08;100515.91;5098146;28;787;-43
2020/12/26 05:45:39;;;;;;;;;;;;;;;21.08;39.89;100526.44;5115784;28;1980;-45
2020/12/26 05:48:11;;;;;;;;;;;;;;;21.17;39.86;100541.19;5101549;28;810;-44
2020/12/26 05:50:36;;;;;;;;;;;;;;;20.96;40.30;100542.78;5097400;28;839;-45
2020/12/26 05:53:02;;;;;;;;;;;;;;;21.11;39.90;100536.91;5097571;28;815;-46
2020/12/26 05:55:40;;;;;;;;;;;;;;;21.11;40.06;100553.50;5098049;28;771;-43
2020/12/26 05:58:06;;;;;;;;;;;;;;;20.79;40.64;100551.66;5097738;28;838;-43
2020/12/26 06:00:38;;;;;;;;;;;;;;;20.82;40.88;100560.19;5097997;28;729;-44
2020/12/26 06:03:22;;;;;;;;;;;;;;;20.91;40.59;100565.78;5097847;28;832;-44
2020/12/26 06:05:48;;;;;;;;;;;;;;;20.91;40.66;100562.22;5097084;28;1984;-45
2020/12/26 06:08:17;;;;;;;;;;;;;;;21.08;40.33;100556.84;5096640;28;886;-46
2020/12/26 06:11:02;;;;;;;;;;;;;;;21.09;40.18;100561.28;5096901;28;752;-46
2020/12/26 06:13:29;;;;;;;;;;;;;;;21.03;40.36;100566.09;5097167;28;1558;-45
2020/12/26 06:16:10;;;;;;;;;;;;;;;21.13;40.07;100561.47;5097033;28;892;-46
2020/12/26 06:18:40;;;;;;;;;;;;;;;21.18;39.87;100576.00;5097369;28;995;-48
2020/12/26 06:21:06;;;;;;;;;;;;;;;20.97;40.55;100574.78;5095507;28;954;-45
2020/12/26 06:23:32;;;;;;;;;;;;;;;21.05;40.16;100576.84;5095946;28;804;-46
2020/12/26 06:25:57;;;;;;;;;;;;;;;20.99;40.42;100575.31;5095448;28;1909;-45
2020/12/26 06:28:24;;;;;;;;;;;;;;;21.03;40.19;100593.75;5097295;28;1414;-46
2020/12/26 06:30:51;;;;;;;;;;;;;;;21.02;40.31;100600.38;5097291;28;863;-43
2020/12/26 06:33:16;;;;;;;;;;;;;;;21.04;40.13;100605.59;5096555;28;871;-45
2020/12/26 06:35:42;;;;;;;;;;;;;;;20.91;40.62;100615.53;5096082;28;1130;-45
2020/12/26 06:38:11;;;;;;;;;;;;;;;20.97;40.20;100610.72;5096755;28;862;-45
2020/12/26 06:40:36;;;;;;;;;;;;;;;20.97;40.50;100606.03;5097024;28;751;-44
2020/12/26 06:43:02;;;;;;;;;;;;;;;20.74;40.88;100616.16;5097208;28;780;-45
2020/12/26 06:45:34;;;;;;;;;;;;;;;20.48;41.49;100613.84;5114187;28;1914;-47
2020/12/26 06:47:59;;;;;;;;;;;;;;;20.41;41.50;100624.47;5116791;28;900;-47
2020/12/26 06:50:26;;;;;;;;;;;;;;;20.46;41.29;100634.59;5109480;28;989;-45
2020/12/26 06:52:51;;;;;;;;;;;;;;;20.36;41.59;100627.31;5095519;28;883;-46
2020/12/26 06:55:41;;;;;;;;;;;;;;;20.43;41.63;100637.97;5096739;28;891;-46
2020/12/26 06:58:07;;;;;;;;;;;;;;;20.66;40.89;100636.16;5096305;28;875;-48
2020/12/26 07:00:33;;;;;;;;;;;;;;;20.73;40.94;100636.59;5096853;28;820;-48
2020/12/26 07:03:22;;;;;;;;;;;;;;;20.72;40.91;100636.91;5096725;28;824;-50
2020/12/26 07:05:47;;;;;;;;;;;;;;;20.63;41.11;100642.31;5087576;28;1950;-47
2020/12/26 07:08:25;;;;;;;;;;;;;;;20.77;40.49;100643.16;5096231;28;875;-46
2020/12/26 07:10:51;;;;;;;;;;;;;;;20.48;41.18;100669.09;5096566;28;759;-47
2020/12/26 07:13:34;;;;;;;;;;;;;;;20.35;41.51;100665.13;5096611;28;812;-47
2020/12/26 07:16:00;;;;;;;;;;;;;;;20.15;42.17;100669.06;5096820;28;902;-47
2020/12/26 07:18:25;;;;;;;;;;;;;;;20.24;41.83;100668.38;5096004;28;755;-46
2020/12/26 07:20:53;;;;;;;;;;;;;;;20.41;41.70;100667.81;5094632;28;1465;-46
2020/12/26 07:23:21;;;;;;;;;;;;;;;20.55;41.02;100662.34;5095238;28;760;-50
2020/12/26 07:25:47;;;;;;;;;;;;;;;20.64;40.87;100652.25;5094376;28;1980;-48
2020/12/26 07:28:12;;;;;;;;;;;;;;;20.60;40.87;100652.00;5096253;28;831;-46
2020/12/26 07:30:38;;;;;;;;;;;;;;;20.70;40.70;100659.31;5096428;28;808;-46
2020/12/26 07:33:03;;;;;;;;;;;;;;;20.68;40.72;100654.13;5099546;28;790;-46
2020/12/26 07:35:29;;;;;;;;;;;;;;;20.70;40.74;100653.81;5099964;28;954;-47
2020/12/26 07:37:59;;;;;;;;;;;;;;;20.42;41.31;100663.94;5100617;28;798;-47
2020/12/26 07:40:30;;;;;;;;;;;;;;;20.27;41.63;100674.13;5099466;28;902;-45
2020/12/26 07:42:56;;;;;;;;;;;;;;;20.02;42.22;100678.13;5100262;28;775;-47
2020/12/26 07:45:23;;;;;;;;;;;;;;;20.38;41.42;100685.81;5116431;28;1921;-46
2020/12/26 07:47:49;;;;;;;;;;;;;;;20.33;41.40;100705.25;5119047;28;751;-45
2020/12/26 07:50:15;;;;;;;;;;;;;;;20.39;41.59;100695.75;5116772;28;953;-51
2020/12/26 07:52:47;;;;;;;;;;;;;;;20.44;41.30;100698.44;5098842;28;2119;-46
2020/12/26 07:55:12;;;;;;;;;;;;;;;20.49;41.07;100703.03;5099956;28;799;-44
2020/12/26 07:57:38;;;;;;;;;;;;;;;20.40;41.25;100693.78;5100006;28;748;-45
2020/12/26 08:00:03;;;;;;;;;;;;;;;20.29;41.48;100695.94;5100084;28;855;-43
2020/12/26 08:02:30;;;;;;;;;;;;;;;20.12;42.02;100700.03;5099825;28;602;-45
2020/12/26 08:04:55;;;;;;;;;;;;;;;20.33;41.49;100705.25;5099696;28;918;-44
2020/12/26 08:07:21;;;;;;;;;;;;;;;20.39;41.45;100717.84;5099795;28;1988;-47
2020/12/26 08:09:53;;;;;;;;;;;;;;;20.20;41.67;100717.03;5099707;28;557;-45
2020/12/26 08:12:18;;;;;;;;;;;;;;;20.25;41.73;100708.69;5099628;28;949;-45
2020/12/26 08:14:44;;;;;;;;;;;;;;;20.36;41.36;100718.44;5099923;28;875;-47
2020/12/26 08:17:10;;;;;;;;;;;;;;;20.44;41.13;100705.88;5099704;28;784;-49
2020/12/26 08:19:35;;;;;;;;;;;;;;;20.65;40.59;100715.47;5099462;28;1046;-44
2020/12/26 08:22:02;;;;;;;;;;;;;;;20.55;40.94;100706.53;5099446;28;989;-46
2020/12/26 08:24:28;;;;;;;;;;;;;;;20.52;40.90;100730.06;5099485;28;831;-46
2020/12/26 08:26:53;;;;;;;;;;;;;;;20.44;41.08;100731.56;5100117;28;1963;-45
2020/12/26 08:29:22;;;;;;;;;;;;;;;20.38;41.31;100730.00;5099442;28;763;-51
2020/12/26 08:31:47;;;;;;;;;;;;;;;20.25;41.78;100728.00;5099349;28;799;-46
2020/12/26 08:34:15;;;;;;;;;;;;;;;20.18;41.68;100723.66;5098224;28;874;-48
2020/12/26 08:37:00;;;;;;;;;;;;;;;20.33;41.34;100727.34;5097506;28;910;-48
2020/12/26 08:39:26;;;;;;;;;;;;;;;19.97;42.24;100719.59;5098880;28;1394;-46
2020/12/26 08:41:51;;;;;;;;;;;;;;;20.00;42.13;100718.97;5097088;28;839;-44
2020/12/26 08:44:17;;;;;;;;;;;;;;;20.20;41.76;100717.03;5105819;28;1040;-44
2020/12/26 08:46:43;;;;;;;;;;;;;;;20.30;41.40;100727.91;5118733;28;1918;-46
2020/12/26 08:49:08;;;;;;;;;;;;;;;20.31;41.32;100732.31;5119417;28;755;-45
2020/12/26 08:51:38;;;;;;;;;;;;;;;20.22;41.77;100725.84;5104336;28;1016;-44
2020/12/26 08:54:04;;;;;;;;;;;;;;;20.03;42.18;100729.41;5099015;28;768;-43
2020/12/26 08:56:32;;;;;;;;;;;;;;;19.89;42.36;100723.00;5097617;28;752;-50
2020/12/26 08:58:58;;;;;;;;;;;;;;;19.98;42.06;100724.81;5098736;28;748;-44
2020/12/26 09:01:23;;;;;;;;;;;;;;;20.34;41.19;100715.16;5098920;28;870;-49
2020/12/26 09:03:51;;;;;;;;;;;;;;;20.15;41.61;100704.94;5098536;28;958;-45
2020/12/26 09:06:17;;;;;;;;;;;;;;;19.81;42.53;100703.25;5098339;28;1972;-46
2020/12/26 09:08:43;;;;;;;;;;;;;;;20.02;42.03;100715.94;5099043;28;716;-46
2020/12/26 09:11:09;;;;;;;;;;;;;;;20.13;41.72;100729.28;5096152;28;834;-48
2020/12/26 09:13:38;;;;;;;;;;;;;;;19.84;42.44;100729.44;5098905;28;775;-46
2020/12/26 09:16:10;;;;;;;;;;;;;;;20.27;41.55;100723.00;5098206;28;811;-48
2020/12/26 09:18:39;;;;;;;;;;;;;;;20.24;41.78;100724.41;5097656;28;1000;-45
2020/12/26 09:21:04;;;;;;;;;;;;;;;20.00;41.92;100736.34;5098055;28;933;-47
2020/12/26 09:23:31;;;;;;;;;;;;;;;19.83;42.42;100742.38;5098496;28;760;-49
2020/12/26 09:26:12;;;;;;;;;;;;;;;19.98;42.10;100737.78;5097909;28;1976;-44
2020/12/26 09:28:50;;;;;;;;;;;;;;;19.87;42.25;100737.09;5097933;28;740;-45
2020/12/26 09:31:16;;;;;;;;;;;;;;;20.13;41.88;100729.28;5097718;28;736;-44
2020/12/26 09:33:42;;;;;;;;;;;;;;;20.26;41.38;100726.88;5097924;28;816;-46
2020/12/26 09:36:11;;;;;;;;;;;;;;;19.94;42.12;100717.44;5097761;28;949;-45
2020/12/26 09:38:37;;;;;;;;;;;;;;;19.83;42.38;100708.47;5098184;28;771;-48
2020/12/26 09:41:16;;;;;;;;;;;;;;;20.01;41.91;100712.34;5097842;28;811;-44
2020/12/26 09:43:42;;;;;;;;;;;;;;;19.64;43.00;100722.19;5100496;28;1137;-46
2020/12/26 09:46:07;;;;;;;;;;;;;;;19.93;42.38;100727.63;5118654;28;1906;-45
2020/12/26 09:48:33;;;;;;;;;;;;;;;20.00;41.91;100716.22;5117659;28;834;-44
2020/12/26 09:50:58;;;;;;;;;;;;;;;19.94;42.03;100722.94;5108341;28;893;-45
2020/12/26 09:53:24;;;;;;;;;;;;;;;19.86;42.23;100723.63;5097593;28;783;-46
2020/12/26 09:55:49;;;;;;;;;;;;;;;20.00;41.98;100718.97;5097220;28;828;-48
2020/12/26 09:58:15;;;;;;;;;;;;;;;20.00;41.85;100714.28;5097867;28;855;-44
2020/12/26 10:00:40;;;;;;;;;;;;;;;19.70;42.51;100726.53;5097480;28;859;-49
2020/12/26 10:03:05;;;;;;;;;;;;;;;19.93;41.97;100722.09;5097482;28;839;-44
2020/12/26 10:05:31;;;;;;;;;;;;;;;19.86;42.19;100723.63;5097081;28;1982;-44
2020/12/26 10:07:56;;;;;;;;;;;;;;;19.82;42.21;100720.63;5097605;28;803;-45
2020/12/26 10:10:22;;;;;;;;;;;;;;;19.86;42.31;100720.84;5097344;28;843;-44
2020/12/26 10:12:47;;;;;;;;;;;;;;;19.89;42.08;100714.72;5097432;28;811;-44
2020/12/26 10:15:13;;;;;;;;;;;;;;;19.72;42.45;100712.44;5097684;28;760;-44
2020/12/26 10:17:39;;;;;;;;;;;;;;;19.87;42.20;100709.50;5097309;28;755;-46
2020/12/26 10:20:05;;;;;;;;;;;;;;;19.92;41.97;100716.88;5096162;28;1059;-43
2020/12/26 10:22:30;;;;;;;;;;;;;;;19.89;42.18;100720.25;5097367;28;850;-51
2020/12/26 10:24:56;;;;;;;;;;;;;;;20.05;41.61;100727.19;5097077;28;811;-47
2020/12/26 10:27:21;;;;;;;;;;;;;;;19.80;42.36;100720.91;5097629;28;1991;-44
2020/12/26 10:29:48;;;;;;;;;;;;;;;19.86;42.19;100718.91;5097370;28;874;-45
2020/12/26 10:32:14;;;;;;;;;;;;;;;19.76;42.44;100719.84;5097305;28;775;-47
2020/12/26 10:34:39;;;;;;;;;;;;;;;19.98;42.03;100712.97;5097247;28;827;-44
2020/12/26 10:37:04;;;;;;;;;;;;;;;19.90;42.09;100719.13;5096927;28;1008;-45
2020/12/26 10:39:30;;;;;;;;;;;;;;;20.00;41.90;100719.78;5097112;28;743;-48
2020/12/26 10:41:55;;;;;;;;;;;;;;;19.83;42.29;100708.47;5096673;28;811;-46
2020/12/26 10:44:21;;;;;;;;;;;;;;;19.92;41.89;100705.84;5104930;28;1133;-47
2020/12/26 10:46:46;;;;;;;;;;;;;;;19.67;42.53;100713.34;5117281;28;1910;-48
2020/12/26 10:49:12;;;;;;;;;;;;;;;19.61;42.88;100718.09;5116921;28;779;-46
2020/12/26 10:51:38;;;;;;;;;;;;;;;19.86;42.18;100710.63;5101810;28;1027;-46
2020/12/26 10:54:03;;;;;;;;;;;;;;;19.70;42.48;100704.47;5096088;28;826;-46
2020/12/26 10:56:29;;;;;;;;;;;;;;;19.71;42.71;100697.81;5094959;28;876;-47
2020/12/26 10:58:54;;;;;;;;;;;;;;;19.81;42.26;100696.88;5096971;28;740;-45
2020/12/26 11:01:28;;;;;;;;;;;;;;;19.67;42.68;100705.88;5096118;28;1042;-47
2020/12/26 11:03:53;;;;;;;;;;;;;;;19.68;42.66;100709.44;5113841;28;885;-45
2020/12/26 11:06:18;;;;;;;;;;;;;;;19.76;42.22;100696.94;5104429;28;1909;-46
2020/12/26 11:08:44;;;;;;;;;;;;;;;19.62;42.57;100705.94;5096507;28;832;-45
2020/12/26 11:11:09;;;;;;;;;;;;;;;19.76;42.48;100714.31;5096309;28;756;-46
2020/12/26 11:13:36;;;;;;;;;;;;;;;19.87;41.95;100719.75;5096883;28;808;-45
2020/12/26 11:16:02;;;;;;;;;;;;;;;19.73;42.29;100714.91;5078670;28;843;-50
2020/12/26 11:18:27;;;;;;;;;;;;;;;19.71;42.45;100706.09;5096421;28;971;-44
2020/12/26 11:20:53;;;;;;;;;;;;;;;19.76;42.15;100706.03;5096168;28;1185;-44
2020/12/26 11:23:18;;;;;;;;;;;;;;;19.64;42.51;100695.44;5096283;28;843;-47
2020/12/26 11:25:43;;;;;;;;;;;;;;;19.62;42.60;100707.91;5095668;28;1906;-50
2020/12/26 11:28:09;;;;;;;;;;;;;;;19.65;42.65;100708.09;5096449;28;863;-46
2020/12/26 11:30:34;;;;;;;;;;;;;;;19.67;42.47;100721.63;5096102;28;859;-46
2020/12/26 11:33:00;;;;;;;;;;;;;;;19.60;42.84;100708.19;5096368;28;867;-50
2020/12/26 11:35:25;;;;;;;;;;;;;;;19.62;42.56;100710.66;5095563;28;1054;-48
2020/12/26 11:37:50;;;;;;;;;;;;;;;19.67;42.50;100711.41;5096163;28;827;-47
2020/12/26 11:40:16;;;;;;;;;;;;;;;19.52;42.82;100703.34;5095706;28;1046;-46
2020/12/26 11:42:44;;;;;;;;;;;;;;;19.77;42.49;100702.16;5096340;28;815;-48
2020/12/26 11:45:11;;;;;;;;;;;;;;;19.67;42.70;100710.59;5110921;28;1137;-47
2020/12/26 11:47:36;;;;;;;;;;;;;;;19.77;42.20;100704.13;5116315;28;1966;-46
2020/12/26 11:50:02;;;;;;;;;;;;;;;19.65;42.46;100699.03;5114623;28;917;-47
2020/12/26 11:52:28;;;;;;;;;;;;;;;19.63;42.84;100709.53;5095969;28;882;-46
2020/12/26 11:54:53;;;;;;;;;;;;;;;19.60;42.58;100712.88;5095983;28;787;-47
2020/12/26 11:57:18;;;;;;;;;;;;;;;19.58;42.86;100706.84;5095122;28;912;-45
2020/12/26 11:59:44;;;;;;;;;;;;;;;19.80;42.02;100696.09;5096312;28;773;-47
2020/12/26 12:02:10;;;;;;;;;;;;;;;19.81;42.18;100694.97;5095977;28;756;-52
2020/12/26 12:04:35;;;;;;;;;;;;;;;19.74;42.92;100697.25;5096141;28;780;-54
2020/12/26 12:07:01;;;;;;;;;;;;;;;19.69;43.07;100680.75;5095554;28;1914;-58
2020/12/26 12:09:26;;;;;;;;;;;;;;;19.69;43.20;100691.78;5095874;28;847;-47
2020/12/26 12:11:54;;;;;;;;;;;;;;;19.76;43.23;100696.94;5097593;28;932;-46
2020/12/26 12:14:20;;;;;;;;;;;;;;;19.82;42.88;100699.38;5116106;28;743;-46
2020/12/26 12:16:48;;;;;;;;;;;;;;;19.76;42.91;100700.53;5116448;28;802;-45
2020/12/26 12:19:14;;;;;;;;;;;;;;;19.77;42.87;100695.84;5119636;28;1208;-45
2020/12/26 12:21:43;;;;;;;;;;;;;;;19.81;42.73;100686.69;5104086;28;1034;-45
2020/12/26 12:24:08;;;;;;;;;;;;;;;19.96;42.60;100693.94;5099571;28;767;-50
2020/12/26 12:26:34;;;;;;;;;;;;;;;19.97;42.38;100692.00;5099644;28;1901;-49
2020/12/26 12:28:59;;;;;;;;;;;;;;;19.87;42.64;100684.69;5099046;28;906;-47
2020/12/26 12:31:25;;;;;;;;;;;;;;;19.91;42.46;100693.16;5099318;28;807;-46
2020/12/26 12:33:50;;;;;;;;;;;;;;;20.04;42.22;100702.66;5099413;28;760;-47
2020/12/26 12:36:15;;;;;;;;;;;;;;;20.02;42.23;100700.19;5098388;28;835;-53
2020/12/26 12:38:41;;;;;;;;;;;;;;;20.14;41.85;100714.34;5094140;28;760;-50
2020/12/26 12:41:06;;;;;;;;;;;;;;;20.25;41.63;100715.03;5079195;28;866;-49
2020/12/26 12:43:32;;;;;;;;;;;;;;;19.98;42.24;100699.16;5081340;28;1075;-47
2020/12/26 12:45:57;;;;;;;;;;;;;;;19.82;42.82;100704.91;5108899;28;1968;-53
2020/12/26 12:48:23;;;;;;;;;;;;;;;19.89;42.31;100700.94;5098003;28;878;-47
2020/12/26 12:50:48;;;;;;;;;;;;;;;19.81;42.53;100710.69;5098291;28;933;-48